Time;durP1;ratioP1;P1;durP2;ratioP2;P2;SDS_P1;SDS_P2;PMS_P1;PMS_P2;Temp;Humidity;BMP_temperature;BMP_pressure;BME280_temperature;BME280_humidity;BME280_pressure;Samples;Min_cycle;Max_cycle;Signal;HPM_P1;HPM_P2
2021/01/16 00:01:58;;;;;;;2.88;1.50;;;;;;;;;;5074495;28;20516;-50
2021/01/16 00:04:24;;;;;;;1.90;1.60;;;;;;;;;;5074295;28;20261;-50
2021/01/16 00:06:50;;;;;;;1.67;1.40;;;;;;;;;;5074856;28;20259;-50
2021/01/16 00:09:16;;;;;;;1.60;1.50;;;;;;;;;;5074562;28;20178;-50
2021/01/16 00:11:42;;;;;;;1.30;1.20;;;;;;;;;;5062451;28;20232;-50
2021/01/16 00:14:08;;;;;;;1.48;1.38;;;;;;;;;;5074742;28;20463;-50
2021/01/16 00:16:34;;;;;;;2.17;1.45;;;;;;;;;;5074259;28;20282;-50
2021/01/16 00:19:00;;;;;;;2.40;1.30;;;;;;;;;;5073259;28;20178;-50
2021/01/16 00:21:26;;;;;;;1.73;1.40;;;;;;;;;;5066201;28;20210;-50
2021/01/16 00:23:52;;;;;;;1.88;1.55;;;;;;;;;;5072721;28;20201;-50
2021/01/16 00:26:18;;;;;;;1.65;1.30;;;;;;;;;;5074344;28;20203;-50
2021/01/16 00:28:44;;;;;;;2.58;1.35;;;;;;;;;;5073005;28;20336;-50
2021/01/16 00:31:10;;;;;;;1.33;1.23;;;;;;;;;;5071819;28;20174;-50
2021/01/16 00:33:36;;;;;;;1.77;1.10;;;;;;;;;;5074905;28;20167;-50
2021/01/16 00:36:03;;;;;;;1.50;1.40;;;;;;;;;;5074473;28;20247;-50
2021/01/16 00:38:30;;;;;;;1.52;1.42;;;;;;;;;;5074162;28;20489;-50
2021/01/16 00:40:56;;;;;;;1.50;1.40;;;;;;;;;;5070703;28;20458;-50
2021/01/16 00:43:22;;;;;;;1.60;1.50;;;;;;;;;;5065480;28;20182;-50
2021/01/16 00:45:49;;;;;;;1.45;1.25;;;;;;;;;;5073282;28;20205;-50
2021/01/16 00:48:19;;;;;;;1.30;1.15;;;;;;;;;;5074241;28;20268;-50
2021/01/16 00:50:45;;;;;;;1.73;1.30;;;;;;;;;;5069266;28;20170;-50
2021/01/16 00:53:11;;;;;;;1.50;1.40;;;;;;;;;;5077670;28;20193;-50
2021/01/16 00:55:37;;;;;;;1.60;1.50;;;;;;;;;;5074521;28;20545;-50
2021/01/16 00:58:10;;;;;;;1.42;1.33;;;;;;;;;;5073260;28;20174;-50
2021/01/16 01:00:37;;;;;;;1.42;1.30;;;;;;;;;;5071747;28;20228;-50
2021/01/16 01:03:03;;;;;;;1.50;1.40;;;;;;;;;;5072037;28;20482;-50
2021/01/16 01:05:29;;;;;;;1.88;1.40;;;;;;;;;;5073616;28;20206;-50
2021/01/16 01:07:55;;;;;;;1.10;1.00;;;;;;;;;;5074272;28;20175;-50
2021/01/16 01:10:27;;;;;;;1.40;1.20;;;;;;;;;;5074153;28;20241;-50
2021/01/16 01:12:53;;;;;;;2.55;1.20;;;;;;;;;;5065270;28;20197;-49
2021/01/16 01:15:19;;;;;;;1.23;1.13;;;;;;;;;;5074058;28;20171;-50
2021/01/16 01:17:49;;;;;;;1.58;1.45;;;;;;;;;;5071697;28;20602;-50
2021/01/16 01:20:15;;;;;;;1.40;1.30;;;;;;;;;;5073534;28;20574;-50
2021/01/16 01:22:41;;;;;;;1.50;1.30;;;;;;;;;;5067054;28;20273;-50
2021/01/16 01:25:07;;;;;;;1.38;1.17;;;;;;;;;;5073092;28;20527;-50
2021/01/16 01:27:34;;;;;;;2.33;1.17;;;;;;;;;;5073856;28;20175;-50
2021/01/16 01:30:00;;;;;;;1.60;1.25;;;;;;;;;;5075155;28;20561;-50
2021/01/16 01:32:26;;;;;;;1.48;1.30;;;;;;;;;;5068725;28;20185;-50
2021/01/16 01:34:52;;;;;;;1.35;1.25;;;;;;;;;;5076479;28;20186;-50
2021/01/16 01:37:18;;;;;;;1.30;1.20;;;;;;;;;;5077517;28;20174;-50
2021/01/16 01:39:44;;;;;;;1.20;1.10;;;;;;;;;;5077548;28;20198;-50
2021/01/16 01:42:14;;;;;;;1.10;1.10;;;;;;;;;;5074866;28;20244;-50
2021/01/16 01:44:40;;;;;;;1.45;1.35;;;;;;;;;;5077284;28;20224;-50
2021/01/16 01:47:06;;;;;;;1.25;1.20;;;;;;;;;;5077599;28;20488;-50
2021/01/16 01:49:32;;;;;;;1.83;1.00;;;;;;;;;;5073485;28;20584;-50
2021/01/16 01:52:00;;;;;;;1.30;1.20;;;;;;;;;;5072496;28;20206;-50
2021/01/16 01:54:26;;;;;;;1.20;1.10;;;;;;;;;;5077448;28;20542;-50
2021/01/16 01:56:53;;;;;;;1.45;1.30;;;;;;;;;;5077295;28;20179;-50
2021/01/16 01:59:19;;;;;;;1.35;1.25;;;;;;;;;;5076927;28;20179;-50
2021/01/16 02:01:49;;;;;;;1.60;1.30;;;;;;;;;;5076566;28;20213;-50
2021/01/16 02:04:15;;;;;;;1.35;1.20;;;;;;;;;;5076298;28;20193;-50
2021/01/16 02:06:41;;;;;;;1.25;0.95;;;;;;;;;;5075777;28;20206;-50
2021/01/16 02:09:07;;;;;;;0.90;0.90;;;;;;;;;;5069157;28;20179;-50
2021/01/16 02:11:33;;;;;;;1.10;1.10;;;;;;;;;;5067500;28;20185;-50
2021/01/16 02:13:59;;;;;;;1.20;1.10;;;;;;;;;;5077120;28;20272;-50
2021/01/16 02:16:32;;;;;;;1.05;1.00;;;;;;;;;;5075800;28;20186;-50
2021/01/16 02:18:58;;;;;;;1.30;1.20;;;;;;;;;;5075526;28;20541;-50
2021/01/16 02:21:26;;;;;;;1.10;1.10;;;;;;;;;;5067772;28;20550;-50
2021/01/16 02:24:01;;;;;;;1.17;1.13;;;;;;;;;;5063644;28;20194;-50
2021/01/16 02:26:44;;;;;;;2.25;1.10;;;;;;;;;;5056241;28;20198;-50
2021/01/16 02:29:10;;;;;;;1.17;1.08;;;;;;;;;;5076207;28;20197;-50
2021/01/16 02:31:38;;;;;;;1.38;1.27;;;;;;;;;;5076482;28;20453;-50
2021/01/16 02:34:06;;;;;;;1.08;1.02;;;;;;;;;;5076431;28;20190;-50
2021/01/16 02:36:35;;;;;;;1.30;1.20;;;;;;;;;;5077023;28;20170;-50
2021/01/16 02:39:13;;;;;;;1.13;1.02;;;;;;;;;;5075608;28;20190;-50
2021/01/16 02:41:52;;;;;;;1.13;1.10;;;;;;;;;;5076301;28;20185;-50
2021/01/16 02:44:41;;;;;;;1.00;1.00;;;;;;;;;;5056625;28;20190;-50
2021/01/16 02:47:10;;;;;;;1.30;1.20;;;;;;;;;;5055145;28;20205;-50
2021/01/16 02:49:38;;;;;;;1.00;1.00;;;;;;;;;;5075511;28;20191;-50
2021/01/16 02:52:08;;;;;;;1.08;1.08;;;;;;;;;;5075893;28;20175;-50
2021/01/16 02:54:38;;;;;;;1.25;1.15;;;;;;;;;;5075356;28;20189;-50
2021/01/16 02:57:05;;;;;;;1.40;1.30;;;;;;;;;;5076228;28;20457;-50
2021/01/16 02:59:35;;;;;;;1.20;1.10;;;;;;;;;;5075927;28;20184;-50
2021/01/16 03:02:02;;;;;;;1.20;1.10;;;;;;;;;;5076096;28;20194;-50
2021/01/16 03:04:28;;;;;;;2.08;1.10;;;;;;;;;;5075107;28;20232;-50
2021/01/16 03:06:55;;;;;;;1.38;1.20;;;;;;;;;;5076028;28;20202;-50
2021/01/16 03:09:22;;;;;;;1.27;1.17;;;;;;;;;;5070401;28;20179;-50
2021/01/16 03:11:48;;;;;;;1.17;1.10;;;;;;;;;;5057044;28;20171;-50
2021/01/16 03:14:15;;;;;;;1.20;1.10;;;;;;;;;;5065804;28;20172;-50
2021/01/16 03:16:52;;;;;;;1.17;1.10;;;;;;;;;;5061502;28;20490;-50
2021/01/16 03:19:21;;;;;;;1.20;1.10;;;;;;;;;;5074715;28;20543;-50
2021/01/16 03:21:47;;;;;;;1.27;1.17;;;;;;;;;;5071193;28;20554;-50
2021/01/16 03:24:13;;;;;;;1.00;1.00;;;;;;;;;;5058519;28;20598;-50
2021/01/16 03:26:39;;;;;;;1.00;1.00;;;;;;;;;;5063413;28;20202;-50
2021/01/16 03:29:05;;;;;;;1.25;1.15;;;;;;;;;;5071985;28;20530;-50
2021/01/16 03:31:31;;;;;;;1.20;1.10;;;;;;;;;;5075923;28;20174;-50
2021/01/16 03:33:57;;;;;;;1.25;1.20;;;;;;;;;;5068685;28;20179;-50
2021/01/16 03:36:23;;;;;;;1.15;1.00;;;;;;;;;;5055702;28;20189;-50
2021/01/16 03:38:49;;;;;;;1.00;1.00;;;;;;;;;;5069521;28;20278;-50
2021/01/16 03:41:15;;;;;;;1.05;1.02;;;;;;;;;;5067733;28;20257;-50
2021/01/16 03:43:41;;;;;;;1.00;1.00;;;;;;;;;;5074139;28;20696;-50
2021/01/16 03:46:07;;;;;;;1.00;1.00;;;;;;;;;;5074031;28;20251;-50
2021/01/16 03:48:35;;;;;;;0.93;0.93;;;;;;;;;;5074935;28;20530;-50
2021/01/16 03:51:01;;;;;;;1.00;0.90;;;;;;;;;;5074464;28;20172;-48
2021/01/16 03:53:27;;;;;;;1.30;1.20;;;;;;;;;;5087834;28;20181;-50
2021/01/16 03:55:53;;;;;;;1.30;1.20;;;;;;;;;;5055207;28;20171;-50
2021/01/16 03:58:19;;;;;;;1.20;1.10;;;;;;;;;;5068253;28;20596;-50
2021/01/16 04:00:45;;;;;;;1.10;1.10;;;;;;;;;;5074560;28;20194;-50
2021/01/16 04:03:11;;;;;;;1.20;1.10;;;;;;;;;;5075201;28;20178;-50
2021/01/16 04:05:37;;;;;;;1.73;1.20;;;;;;;;;;5061587;28;20216;-50
2021/01/16 04:08:03;;;;;;;1.15;1.15;;;;;;;;;;5075174;28;20178;-50
2021/01/16 04:10:29;;;;;;;1.10;1.10;;;;;;;;;;5074814;28;20480;-50
2021/01/16 04:12:55;;;;;;;1.30;1.00;;;;;;;;;;5074926;28;20239;-50
2021/01/16 04:15:21;;;;;;;1.17;1.10;;;;;;;;;;5073966;28;20193;-50
2021/01/16 04:17:46;;;;;;;1.40;1.30;;;;;;;;;;5074795;28;20194;-50
2021/01/16 04:20:13;;;;;;;1.33;1.17;;;;;;;;;;5069857;28;20185;-50
2021/01/16 04:22:39;;;;;;;1.38;1.00;;;;;;;;;;5074399;28;20193;-50
2021/01/16 04:25:06;;;;;;;1.08;1.08;;;;;;;;;;5065435;28;20308;-50
2021/01/16 04:27:33;;;;;;;1.15;1.10;;;;;;;;;;5074153;28;20163;-50
2021/01/16 04:30:02;;;;;;;2.15;1.20;;;;;;;;;;5074764;28;20597;-50
2021/01/16 04:32:28;;;;;;;1.45;1.35;;;;;;;;;;5074707;28;20181;-50
2021/01/16 04:34:54;;;;;;;2.03;1.00;;;;;;;;;;5069183;28;20174;-50
2021/01/16 04:37:20;;;;;;;1.30;1.20;;;;;;;;;;5066634;28;20175;-50
2021/01/16 04:39:46;;;;;;;1.23;1.15;;;;;;;;;;5074236;28;20480;-50
2021/01/16 04:42:14;;;;;;;1.63;1.30;;;;;;;;;;5074231;28;20181;-50
2021/01/16 04:44:43;;;;;;;0.98;0.98;;;;;;;;;;5073730;28;20209;-50
2021/01/16 04:47:10;;;;;;;1.33;1.10;;;;;;;;;;5073877;28;20194;-50
2021/01/16 04:49:37;;;;;;;0.90;0.90;;;;;;;;;;5073997;28;20178;-50
2021/01/16 04:52:04;;;;;;;0.82;0.82;;;;;;;;;;5077842;28;20171;-50
2021/01/16 04:54:32;;;;;;;1.23;1.13;;;;;;;;;;5070058;28;20212;-50
2021/01/16 04:56:58;;;;;;;1.25;1.10;;;;;;;;;;5074206;28;20178;-50
2021/01/16 04:59:24;;;;;;;1.10;1.10;;;;;;;;;;5074060;28;20190;-50
2021/01/16 05:01:50;;;;;;;1.17;1.08;;;;;;;;;;5067178;28;20285;-50
2021/01/16 05:04:17;;;;;;;1.00;1.00;;;;;;;;;;5075622;28;20459;-50
2021/01/16 05:06:46;;;;;;;1.00;1.00;;;;;;;;;;5078463;28;20209;-50
2021/01/16 05:09:13;;;;;;;1.20;1.10;;;;;;;;;;5078233;28;20178;-50
2021/01/16 05:11:42;;;;;;;0.95;0.95;;;;;;;;;;5078463;28;20209;-50
2021/01/16 05:14:12;;;;;;;1.00;1.00;;;;;;;;;;5071986;28;20178;-50
2021/01/16 05:16:51;;;;;;;1.15;0.95;;;;;;;;;;5074641;28;20178;-50
2021/01/16 05:19:20;;;;;;;1.05;1.05;;;;;;;;;;5076649;28;20212;-50
2021/01/16 05:21:45;;;;;;;4.60;1.02;;;;;;;;;;5077224;28;20170;-50
2021/01/16 05:24:14;;;;;;;1.30;1.20;;;;;;;;;;5071591;28;20294;-50
2021/01/16 05:27:00;;;;;;;1.08;0.98;;;;;;;;;;5064676;28;20198;-50
2021/01/16 05:29:27;;;;;;;1.13;1.02;;;;;;;;;;5062472;28;20282;-50
2021/01/16 05:31:53;;;;;;;1.00;1.00;;;;;;;;;;5068467;28;20513;-50
2021/01/16 05:34:20;;;;;;;1.20;1.10;;;;;;;;;;5076724;28;20572;-50
2021/01/16 05:36:46;;;;;;;0.80;0.80;;;;;;;;;;5077892;28;20174;-50
2021/01/16 05:39:13;;;;;;;0.93;0.93;;;;;;;;;;5077671;28;20198;-50
2021/01/16 05:41:39;;;;;;;0.85;0.85;;;;;;;;;;5077704;28;20273;-50
2021/01/16 05:44:06;;;;;;;1.30;1.10;;;;;;;;;;5072428;28;20562;-50
2021/01/16 05:46:33;;;;;;;1.17;1.10;;;;;;;;;;5077872;28;20592;-50
2021/01/16 05:48:59;;;;;;;0.90;0.90;;;;;;;;;;5076771;28;20304;-50
2021/01/16 05:51:26;;;;;;;1.13;1.10;;;;;;;;;;5079468;28;20512;-50
2021/01/16 05:53:52;;;;;;;1.05;1.05;;;;;;;;;;5077783;28;20179;-50
2021/01/16 05:56:18;;;;;;;1.17;1.10;;;;;;;;;;5077247;28;20244;-50
2021/01/16 05:58:44;;;;;;;1.20;1.10;;;;;;;;;;5076889;28;20187;-50
2021/01/16 06:01:20;;;;;;;1.30;1.10;;;;;;;;;;5077265;28;20439;-50
2021/01/16 06:03:50;;;;;;;0.98;0.98;;;;;;;;;;5070519;28;20223;-50
2021/01/16 06:06:16;;;;;;;1.23;1.15;;;;;;;;;;5056856;28;20218;-49
2021/01/16 06:08:52;;;;;;;1.25;1.02;;;;;;;;;;5074123;28;20174;-50
2021/01/16 06:11:19;;;;;;;0.80;0.80;;;;;;;;;;5076791;28;20171;-50
2021/01/16 06:13:48;;;;;;;0.80;0.80;;;;;;;;;;5076591;28;20182;-50
2021/01/16 06:16:17;;;;;;;0.93;0.93;;;;;;;;;;5072072;28;20246;-50
2021/01/16 06:18:46;;;;;;;0.90;0.90;;;;;;;;;;5073794;28;20178;-50
2021/01/16 06:21:19;;;;;;;0.90;0.90;;;;;;;;;;5076431;28;20236;-50
2021/01/16 06:23:48;;;;;;;1.10;1.10;;;;;;;;;;5076619;28;20213;-51
2021/01/16 06:26:16;;;;;;;0.90;0.90;;;;;;;;;;5066400;28;20191;-50
2021/01/16 06:29:01;;;;;;;0.98;0.98;;;;;;;;;;5073308;28;20254;-49
2021/01/16 06:31:31;;;;;;;0.93;0.90;;;;;;;;;;5077096;28;20202;-50
2021/01/16 06:33:57;;;;;;;1.90;1.23;;;;;;;;;;5069093;28;20171;-50
2021/01/16 06:36:28;;;;;;;1.20;1.10;;;;;;;;;;5065982;28;20186;-49
2021/01/16 06:38:56;;;;;;;1.30;1.20;;;;;;;;;;5075230;28;20219;-50
2021/01/16 06:41:26;;;;;;;1.45;1.20;;;;;;;;;;5070019;28;20599;-49
2021/01/16 06:43:53;;;;;;;1.45;1.35;;;;;;;;;;5068997;28;20183;-50
2021/01/16 06:46:19;;;;;;;1.33;1.23;;;;;;;;;;5056255;28;20199;-50
2021/01/16 06:48:46;;;;;;;1.50;1.40;;;;;;;;;;5072786;28;20193;-50
2021/01/16 06:51:26;;;;;;;2.25;1.13;;;;;;;;;;5075996;28;20293;-50
2021/01/16 06:53:51;;;;;;;2.25;1.35;;;;;;;;;;5065025;28;20443;-50
2021/01/16 06:56:27;;;;;;;1.63;1.50;;;;;;;;;;5056224;28;20175;-52
2021/01/16 06:58:54;;;;;;;1.42;1.30;;;;;;;;;;5074551;28;20182;-50
2021/01/16 07:01:28;;;;;;;2.67;1.13;;;;;;;;;;5076000;28;20508;-50
2021/01/16 07:03:54;;;;;;;3.10;1.63;;;;;;;;;;5076081;28;20182;-51
2021/01/16 07:06:20;;;;;;;2.25;1.25;;;;;;;;;;5057308;28;20617;-50
2021/01/16 07:08:47;;;;;;;1.90;1.33;;;;;;;;;;5072280;28;20179;-50
2021/01/16 07:11:13;;;;;;;4.07;1.30;;;;;;;;;;5075879;28;20171;-50
2021/01/16 07:13:42;;;;;;;1.33;1.20;;;;;;;;;;5076109;28;20207;-50
2021/01/16 07:16:08;;;;;;;1.83;1.35;;;;;;;;;;5075653;28;20254;-50
2021/01/16 07:18:35;;;;;;;1.70;1.50;;;;;;;;;;5075479;28;20470;-50
2021/01/16 07:21:01;;;;;;;3.22;1.30;;;;;;;;;;5074080;28;20175;-50
2021/01/16 07:23:31;;;;;;;1.63;1.50;;;;;;;;;;5073590;28;20449;-50
2021/01/16 07:25:59;;;;;;;2.17;1.17;;;;;;;;;;5075654;28;20194;-50
2021/01/16 07:28:26;;;;;;;2.70;1.42;;;;;;;;;;5075593;28;20457;-51
2021/01/16 07:30:52;;;;;;;2.33;1.50;;;;;;;;;;5075699;28;20158;-50
2021/01/16 07:33:18;;;;;;;4.03;1.77;;;;;;;;;;5075423;28;20179;-50
2021/01/16 07:35:49;;;;;;;1.80;1.20;;;;;;;;;;5074390;28;20175;-50
2021/01/16 07:38:16;;;;;;;5.28;1.75;;;;;;;;;;5074862;28;20468;-50
2021/01/16 07:40:43;;;;;;;3.80;1.48;;;;;;;;;;5075615;28;20273;-50
2021/01/16 07:43:18;;;;;;;4.40;1.90;;;;;;;;;;5075755;28;20170;-50
2021/01/16 07:45:49;;;;;;;2.78;1.60;;;;;;;;;;5074771;28;20296;-50
2021/01/16 07:48:20;;;;;;;2.90;1.50;;;;;;;;;;5074936;28;20166;-50
2021/01/16 07:50:49;;;;;;;2.45;1.50;;;;;;;;;;5066201;28;20254;-50
2021/01/16 07:53:25;;;;;;;3.38;1.73;;;;;;;;;;5071674;28;20708;-50
2021/01/16 07:56:00;;;;;;;4.88;1.80;;;;;;;;;;5074816;28;20186;-50
2021/01/16 07:58:30;;;;;;;9.32;1.77;;;;;;;;;;5074947;28;20188;-49
2021/01/16 08:01:10;;;;;;;4.05;1.67;;;;;;;;;;5075267;28;20292;-50
2021/01/16 08:03:36;;;;;;;3.25;1.73;;;;;;;;;;5066589;28;20195;-61
2021/01/16 08:06:02;;;;;;;3.17;1.50;;;;;;;;;;5058647;28;20190;-47
2021/01/16 08:08:46;;;;;;;3.97;2.03;;;;;;;;;;5075120;28;20170;-47
2021/01/16 08:11:14;;;;;;;4.28;1.90;;;;;;;;;;5075188;28;20245;-47
2021/01/16 08:13:40;;;;;;;9.15;1.85;;;;;;;;;;5075065;28;20723;-46
2021/01/16 08:16:06;;;;;;;5.40;2.15;;;;;;;;;;5073945;28;20190;-47
2021/01/16 08:18:34;;;;;;;6.15;1.98;;;;;;;;;;5072980;28;20182;-46
2021/01/16 08:21:01;;;;;;;7.13;2.50;;;;;;;;;;5060870;28;20167;-47
2021/01/16 08:23:27;;;;;;;5.82;1.60;;;;;;;;;;5074998;28;20247;-47
2021/01/16 08:25:53;;;;;;;4.35;1.75;;;;;;;;;;5068988;28;20210;-46
2021/01/16 08:28:24;;;;;;;5.68;1.98;;;;;;;;;;5068102;28;20187;-47
2021/01/16 08:30:50;;;;;;;3.22;1.95;;;;;;;;;;5071770;28;20585;-45
2021/01/16 08:33:16;;;;;;;3.30;1.80;;;;;;;;;;5063904;28;20257;-46
2021/01/16 08:35:48;;;;;;;5.38;2.08;;;;;;;;;;5074357;28;20266;-47
2021/01/16 08:38:16;;;;;;;6.68;2.00;;;;;;;;;;5071465;28;20474;-46
2021/01/16 08:41:06;;;;;;;3.38;2.00;;;;;;;;;;5074925;28;20185;-47
2021/01/16 08:43:35;;;;;;;3.03;1.83;;;;;;;;;;5074814;28;20557;-46
2021/01/16 08:46:09;;;;;;;3.22;1.88;;;;;;;;;;5073393;28;20589;-46
2021/01/16 08:48:35;;;;;;;3.08;1.80;;;;;;;;;;5073642;28;20205;-47
2021/01/16 08:51:02;;;;;;;2.55;1.75;;;;;;;;;;5064934;28;20195;-46
2021/01/16 08:53:29;;;;;;;2.28;1.77;;;;;;;;;;5076674;28;20175;-47
2021/01/16 08:55:55;;;;;;;1.42;1.20;;;;;;;;;;5073437;28;20257;-46
2021/01/16 08:58:28;;;;;;;2.80;1.80;;;;;;;;;;5074090;28;20269;-47
2021/01/16 09:00:54;;;;;;;2.38;1.90;;;;;;;;;;5074617;28;20607;-46
2021/01/16 09:03:20;;;;;;;2.20;1.63;;;;;;;;;;5073677;28;20609;-46
2021/01/16 09:05:47;;;;;;;4.05;1.70;;;;;;;;;;5063718;28;20205;-46
2021/01/16 09:08:21;;;;;;;3.58;1.80;;;;;;;;;;5074176;28;20550;-45
2021/01/16 09:10:47;;;;;;;4.13;2.28;;;;;;;;;;5074023;28;20179;-47
2021/01/16 09:13:26;;;;;;;5.78;2.13;;;;;;;;;;5074138;28;20236;-47
2021/01/16 09:15:53;;;;;;;3.05;1.95;;;;;;;;;;5070011;28;20516;-47
2021/01/16 09:18:25;;;;;;;5.15;2.40;;;;;;;;;;5073710;28;20212;-47
2021/01/16 09:20:54;;;;;;;7.05;2.00;;;;;;;;;;5062678;28;20175;-46
2021/01/16 09:23:20;;;;;;;3.42;1.70;;;;;;;;;;5070308;28;20517;-47
2021/01/16 09:25:46;;;;;;;3.03;1.83;;;;;;;;;;5053719;28;20278;-46
2021/01/16 09:28:12;;;;;;;4.30;2.08;;;;;;;;;;5060499;28;20175;-47
2021/01/16 09:30:38;;;;;;;3.97;2.40;;;;;;;;;;5054225;28;20554;-47
2021/01/16 09:33:21;;;;;;;3.50;2.30;;;;;;;;;;5063633;28;20502;-47
2021/01/16 09:35:47;;;;;;;3.80;2.17;;;;;;;;;;5073698;28;20231;-47
2021/01/16 09:38:17;;;;;;;4.13;2.42;;;;;;;;;;5069199;28;20187;-47
2021/01/16 09:40:43;;;;;;;4.75;2.63;;;;;;;;;;5074041;28;20209;-46
2021/01/16 09:43:31;;;;;;;6.22;2.72;;;;;;;;;;5070538;28;20585;-47
2021/01/16 09:46:00;;;;;;;7.50;3.15;;;;;;;;;;5073330;28;20638;-46
2021/01/16 09:48:32;;;;;;;8.05;2.88;;;;;;;;;;5072873;28;20187;-47
2021/01/16 09:50:59;;;;;;;4.70;2.67;;;;;;;;;;5073108;28;20178;-47
2021/01/16 09:53:29;;;;;;;7.35;2.83;;;;;;;;;;5077711;28;20171;-46
2021/01/16 09:55:55;;;;;;;8.55;2.55;;;;;;;;;;5074894;28;20182;-47
2021/01/16 09:58:30;;;;;;;7.97;2.80;;;;;;;;;;5075343;28;20233;-48
2021/01/16 10:01:16;;;;;;;7.35;2.80;;;;;;;;;;5077662;28;20177;-46
2021/01/16 10:03:43;;;;;;;6.32;3.03;;;;;;;;;;5076065;28;20213;-48
2021/01/16 10:06:09;;;;;;;3.85;2.58;;;;;;;;;;5064586;28;20693;-47
2021/01/16 10:08:39;;;;;;;4.82;2.78;;;;;;;;;;5060480;28;20170;-49
2021/01/16 10:11:05;;;;;;;6.15;2.58;;;;;;;;;;5077571;28;20162;-47
2021/01/16 10:13:32;;;;;;;4.60;2.78;;;;;;;;;;5076431;28;20572;-50
2021/01/16 10:15:59;;;;;;;4.85;2.83;;;;;;;;;;5076592;28;20174;-49
2021/01/16 10:18:30;;;;;;;9.15;3.13;;;;;;;;;;5075391;28;20286;-49
2021/01/16 10:21:00;;;;;;;5.05;3.17;;;;;;;;;;5069568;28;20183;-50
2021/01/16 10:23:27;;;;;;;9.57;3.92;;;;;;;;;;5071384;28;20182;-51
2021/01/16 10:25:59;;;;;;;7.97;3.90;;;;;;;;;;5076387;28;20201;-51
2021/01/16 10:28:34;;;;;;;9.13;4.07;;;;;;;;;;5076847;28;20188;-51
2021/01/16 10:31:04;;;;;;;10.85;3.33;;;;;;;;;;5077156;28;20194;-50
2021/01/16 10:33:36;;;;;;;10.27;4.00;;;;;;;;;;5075004;28;20178;-50
2021/01/16 10:36:15;;;;;;;11.73;3.10;;;;;;;;;;5075598;28;20186;-51
2021/01/16 10:38:45;;;;;;;12.38;3.13;;;;;;;;;;5076714;28;20198;-48
2021/01/16 10:41:11;;;;;;;10.27;3.25;;;;;;;;;;5072513;28;20182;-48
2021/01/16 10:43:38;;;;;;;17.95;3.58;;;;;;;;;;5076532;28;20190;-48
2021/01/16 10:46:30;;;;;;;10.25;3.40;;;;;;;;;;5076158;28;20206;-50
2021/01/16 10:49:15;;;;;;;13.63;3.00;;;;;;;;;;5074349;28;20511;-52
2021/01/16 10:51:46;;;;;;;12.80;3.38;;;;;;;;;;5071179;28;20223;-50
2021/01/16 10:54:14;;;;;;;11.52;3.28;;;;;;;;;;5076207;28;20194;-49
2021/01/16 10:56:43;;;;;;;9.35;2.88;;;;;;;;;;5076315;28;20743;-52
2021/01/16 10:59:10;;;;;;;9.05;3.03;;;;;;;;;;5071585;28;20511;-49
2021/01/16 11:01:47;;;;;;;7.63;3.28;;;;;;;;;;5074352;28;20252;-51
2021/01/16 11:04:17;;;;;;;8.18;2.97;;;;;;;;;;5062094;28;20168;-51
2021/01/16 11:06:50;;;;;;;7.32;2.67;;;;;;;;;;5067757;28;20444;-51
2021/01/16 11:09:35;;;;;;;6.25;2.35;;;;;;;;;;5070438;28;20394;-52
2021/01/16 11:12:01;;;;;;;12.00;2.50;;;;;;;;;;5058982;28;20202;-55
2021/01/16 11:14:34;;;;;;;4.75;2.55;;;;;;;;;;5075030;28;20187;-53
2021/01/16 11:17:02;;;;;;;15.35;2.67;;;;;;;;;;5070478;28;20190;-49
2021/01/16 11:19:31;;;;;;;12.27;2.78;;;;;;;;;;5075680;28;20178;-49
2021/01/16 11:22:00;;;;;;;7.00;2.53;;;;;;;;;;5071310;28;20190;-49
2021/01/16 11:24:35;;;;;;;8.02;2.72;;;;;;;;;;5075011;28;20264;-49
2021/01/16 11:27:03;;;;;;;7.72;2.75;;;;;;;;;;5075109;28;20193;-51
2021/01/16 11:29:35;;;;;;;9.98;2.90;;;;;;;;;;5075654;28;20205;-53
2021/01/16 11:32:13;;;;;;;10.05;2.95;;;;;;;;;;5080063;28;20213;-51
2021/01/16 11:34:57;;;;;;;22.63;8.38;;;;;;;;;;5074374;28;20178;-52
2021/01/16 11:37:42;;;;;;;23.23;9.73;;;;;;;;;;5071737;28;20193;-52
2021/01/16 11:40:28;;;;;;;25.10;9.32;;;;;;;;;;5063186;28;20214;-52
2021/01/16 11:42:55;;;;;;;15.63;8.50;;;;;;;;;;5075590;28;20584;-52
2021/01/16 11:45:24;;;;;;;24.08;10.48;;;;;;;;;;5075131;28;20445;-52
2021/01/16 11:47:54;;;;;;;19.08;9.68;;;;;;;;;;5074958;28;20171;-48
2021/01/16 11:50:21;;;;;;;13.70;8.65;;;;;;;;;;5068826;28;20186;-50
2021/01/16 11:52:47;;;;;;;18.05;9.00;;;;;;;;;;5065733;28;20235;-49
2021/01/16 11:55:14;;;;;;;13.63;7.82;;;;;;;;;;5066947;28;20337;-50
2021/01/16 11:57:41;;;;;;;11.93;7.28;;;;;;;;;;5070965;28;20182;-53
2021/01/16 12:00:07;;;;;;;13.52;7.57;;;;;;;;;;5072015;28;20189;-53
2021/01/16 12:02:34;;;;;;;11.32;7.50;;;;;;;;;;5066638;28;20182;-49
2021/01/16 12:05:00;;;;;;;13.52;7.45;;;;;;;;;;5071930;28;20196;-52
2021/01/16 12:07:27;;;;;;;10.15;6.22;;;;;;;;;;5074901;28;20289;-54
2021/01/16 12:09:56;;;;;;;12.30;6.20;;;;;;;;;;5075092;28;20175;-50
2021/01/16 12:12:29;;;;;;;10.63;6.95;;;;;;;;;;5074461;28;20186;-52
2021/01/16 12:14:55;;;;;;;9.82;6.35;;;;;;;;;;5054544;28;20160;-53
2021/01/16 12:17:21;;;;;;;11.02;7.10;;;;;;;;;;5060828;28;20190;-50
2021/01/16 12:19:50;;;;;;;10.25;6.10;;;;;;;;;;5074355;28;20496;-53
2021/01/16 12:22:20;;;;;;;9.85;6.30;;;;;;;;;;5074270;28;20684;-50
2021/01/16 12:24:47;;;;;;;10.90;6.30;;;;;;;;;;5074373;28;20178;-49
2021/01/16 12:27:13;;;;;;;12.98;6.18;;;;;;;;;;5074560;28;20194;-48
2021/01/16 12:29:47;;;;;;;10.70;6.00;;;;;;;;;;5074849;28;20213;-48
2021/01/16 12:32:14;;;;;;;9.30;5.63;;;;;;;;;;5074773;28;20597;-48
2021/01/16 12:34:46;;;;;;;7.68;5.28;;;;;;;;;;5073806;28;20229;-48
2021/01/16 12:37:13;;;;;;;10.77;5.60;;;;;;;;;;5053439;28;20246;-51
2021/01/16 12:39:39;;;;;;;9.85;5.45;;;;;;;;;;5054960;28;20233;-51
2021/01/16 12:42:05;;;;;;;8.60;5.47;;;;;;;;;;5070399;28;20186;-51
2021/01/16 12:44:31;;;;;;;8.55;5.22;;;;;;;;;;5072399;28;20577;-51
2021/01/16 12:46:58;;;;;;;8.07;4.70;;;;;;;;;;5073863;28;20209;-51
2021/01/16 12:49:24;;;;;;;7.10;4.93;;;;;;;;;;5074199;28;20186;-51
2021/01/16 12:51:50;;;;;;;8.02;4.88;;;;;;;;;;5076512;28;20549;-51
2021/01/16 12:54:17;;;;;;;7.18;4.47;;;;;;;;;;5073989;28;20257;-51
2021/01/16 12:56:44;;;;;;;6.47;4.28;;;;;;;;;;5072986;28;20576;-51
2021/01/16 12:59:17;;;;;;;7.97;4.72;;;;;;;;;;5073920;28;20253;-51
2021/01/16 13:01:45;;;;;;;6.07;4.35;;;;;;;;;;5088501;28;20173;-51
2021/01/16 13:04:11;;;;;;;6.38;4.20;;;;;;;;;;5080801;28;20185;-51
2021/01/16 13:06:38;;;;;;;6.15;4.15;;;;;;;;;;5074057;28;20194;-51
2021/01/16 13:09:05;;;;;;;6.78;4.10;;;;;;;;;;5073601;28;20170;-51
2021/01/16 13:11:31;;;;;;;5.30;3.63;;;;;;;;;;5074451;28;20159;-51
2021/01/16 13:13:59;;;;;;;5.53;3.70;;;;;;;;;;5074218;28;20206;-51
2021/01/16 13:16:43;;;;;;;7.85;3.67;;;;;;;;;;5074076;28;20167;-51
2021/01/16 13:19:10;;;;;;;5.00;3.60;;;;;;;;;;5074225;28;20850;-51
2021/01/16 13:21:36;;;;;;;7.88;3.67;;;;;;;;;;5073529;28;20230;-51
2021/01/16 13:24:03;;;;;;;6.40;4.13;;;;;;;;;;5074197;28;20182;-51
2021/01/16 13:26:38;;;;;;;4.75;3.60;;;;;;;;;;5078219;28;20195;-51
2021/01/16 13:29:05;;;;;;;12.10;3.70;;;;;;;;;;5078510;28;20444;-48
2021/01/16 13:31:31;;;;;;;7.45;3.38;;;;;;;;;;5077889;28;20802;-50
2021/01/16 13:33:57;;;;;;;5.50;3.33;;;;;;;;;;5077423;28;20190;-49
2021/01/16 13:36:27;;;;;;;6.43;3.28;;;;;;;;;;5077978;28;20177;-48
2021/01/16 13:38:54;;;;;;;7.05;3.58;;;;;;;;;;5077919;28;20194;-48
2021/01/16 13:41:20;;;;;;;4.75;3.15;;;;;;;;;;5077598;28;20173;-49
2021/01/16 13:43:47;;;;;;;4.88;3.10;;;;;;;;;;5077722;28;20502;-52
2021/01/16 13:46:13;;;;;;;8.02;2.92;;;;;;;;;;5076992;28;20208;-56
2021/01/16 13:48:59;;;;;;;7.10;3.30;;;;;;;;;;5027260;28;20957;-51
2021/01/16 13:51:28;;;;;;;6.72;2.80;;;;;;;;;;5018777;28;20262;-50
2021/01/16 13:54:00;;;;;;;6.60;3.33;;;;;;;;;;5016274;28;20192;-50
2021/01/16 13:56:27;;;;;;;4.20;2.65;;;;;;;;;;5031480;28;20797;-52
2021/01/16 13:58:53;;;;;;;5.38;2.97;;;;;;;;;;5031529;28;20249;-50
2021/01/16 14:01:35;;;;;;;4.00;3.03;;;;;;;;;;5021428;28;20279;-49
2021/01/16 14:04:03;;;;;;;3.72;2.83;;;;;;;;;;5031348;28;20191;-48
2021/01/16 14:06:29;;;;;;;7.00;2.90;;;;;;;;;;5031390;28;20187;-50
2021/01/16 14:08:56;;;;;;;5.18;2.83;;;;;;;;;;5029635;28;20171;-48
2021/01/16 14:12:31;;;;;;;3.85;2.70;;;;;;;;;;5125554;27;20476;-62
2021/01/16 14:15:04;;;;;;;3.67;2.60;;;;;;;;;;5110890;28;20506;-63
2021/01/16 14:17:36;;;;;;;3.92;2.72;;;;;;;;;;5112489;28;20440;-62
2021/01/16 14:20:05;;;;;;;3.88;2.50;;;;;;;;;;5099962;28;20181;-53
2021/01/16 14:22:44;;;;;;;5.45;2.78;;;;;;;;;;5111984;28;20173;-55
2021/01/16 14:25:12;;;;;;;3.10;2.47;;;;;;;;;;5111466;28;20177;-64
2021/01/16 14:27:48;;;;;;;5.00;2.75;;;;;;;;;;5109554;28;20181;-54
2021/01/16 14:30:34;;;;;;;3.50;2.60;;;;;;;;;;5110440;28;20574;-58
2021/01/16 14:33:06;;;;;;;4.72;2.45;;;;;;;;;;5112042;28;20562;-53
2021/01/16 14:35:33;;;;;;;3.35;2.38;;;;;;;;;;5110086;28;20184;-74
2021/01/16 14:38:01;;;;;;;4.00;2.42;;;;;;;;;;5105452;28;20219;-56
2021/01/16 14:40:31;;;;;;;2.72;2.40;;;;;;;;;;5109765;28;20562;-58
2021/01/16 14:42:58;;;;;;;12.40;2.72;;;;;;;;;;5107928;28;20188;-56
2021/01/16 14:45:24;;;;;;;5.18;2.20;;;;;;;;;;5109639;28;20181;-56
2021/01/16 14:47:50;;;;;;;5.10;2.55;;;;;;;;;;5108024;28;20191;-66
2021/01/16 14:50:16;;;;;;;3.65;3.00;;;;;;;;;;5100688;28;20182;-51
2021/01/16 14:52:43;;;;;;;5.38;2.45;;;;;;;;;;5110397;28;20567;-62